createdAt,value
2023-01-10T00:00:59.034Z,-17.57
2023-01-10T00:06:01.359Z,-17.88
2023-01-10T00:11:23.772Z,-18.02
2023-01-10T00:16:26.164Z,-17.60
2023-01-10T00:21:28.968Z,-17.89
2023-01-10T00:26:31.207Z,-17.64
2023-01-10T00:31:33.553Z,-17.50
2023-01-10T00:36:35.983Z,-17.78
2023-01-10T00:41:57.254Z,-18.06
2023-01-10T00:46:59.482Z,-17.57
2023-01-10T00:52:01.786Z,-18.12
2023-01-10T00:57:04.212Z,-17.75
2023-01-10T01:02:06.553Z,-17.37
2023-01-10T01:07:08.770Z,-17.30
2023-01-10T01:12:11.074Z,-17.57
2023-01-10T01:17:13.322Z,-17.45
2023-01-10T01:22:15.613Z,-18.18
2023-01-10T01:27:17.881Z,-18.06
2023-01-10T01:32:23.783Z,-17.50
2023-01-10T01:37:26.359Z,-19.27
2023-01-10T01:42:34.150Z,-17.52
2023-01-10T01:47:44.091Z,-17.33
2023-01-10T01:52:48.000Z,-17.09
2023-01-10T01:57:52.751Z,-17.35
2023-01-10T02:03:02.547Z,-17.34
2023-01-10T02:08:05.998Z,-17.69
2023-01-10T02:13:10.181Z,-17.25
2023-01-10T02:18:12.842Z,-17.24
2023-01-10T02:23:52.699Z,-16.96
2023-01-10T02:29:47.706Z,-17.57
2023-01-10T02:35:10.965Z,-19.10
2023-01-10T02:40:13.260Z,-16.87
2023-01-10T02:45:25.583Z,-17.27
2023-01-10T02:50:37.405Z,-16.79
2023-01-10T02:55:48.778Z,-16.73
2023-01-10T03:01:01.359Z,-16.96
2023-01-10T03:06:12.843Z,-17.72
2023-01-10T03:11:15.275Z,-17.44
2023-01-10T03:16:19.929Z,-17.52
2023-01-10T03:21:24.479Z,-17.26
2023-01-10T03:27:03.550Z,-17.01
2023-01-10T03:32:08.286Z,-17.90
2023-01-10T03:37:15.162Z,-17.01
2023-01-10T03:42:26.480Z,-16.66
2023-01-10T03:47:37.571Z,-18.55
2023-01-10T03:52:41.347Z,-17.38
2023-01-10T03:57:45.871Z,-17.87
2023-01-10T04:02:48.247Z,-18.05
2023-01-10T04:07:50.652Z,-19.22
2023-01-10T04:12:53.372Z,-17.32
2023-01-10T04:17:56.751Z,-16.89
2023-01-10T04:22:59.189Z,-16.53
2023-01-10T04:28:01.589Z,-16.80
2023-01-10T04:33:03.929Z,-16.46
2023-01-10T04:38:06.191Z,-16.45
2023-01-10T04:43:10.747Z,-16.78
2023-01-10T04:48:13.097Z,-16.65
2023-01-10T04:53:15.448Z,-17.02
2023-01-10T04:58:17.809Z,-17.02
2023-01-10T05:03:20.651Z,-16.26
2023-01-10T05:08:22.897Z,-16.56
2023-01-10T05:13:25.650Z,-17.04
2023-01-10T05:18:29.697Z,-17.04
2023-01-10T05:23:32.108Z,-16.57
2023-01-10T05:28:34.509Z,-16.58
2023-01-10T05:33:36.891Z,-16.29
2023-01-10T05:38:42.147Z,-16.67
2023-01-10T05:43:44.602Z,-16.98
2023-01-10T05:48:46.898Z,-16.16
2023-01-10T05:53:50.299Z,-16.51
2023-01-10T05:59:00.630Z,-16.69
2023-01-10T06:04:07.780Z,-16.12
2023-01-10T06:09:10.030Z,-16.34
2023-01-10T06:14:12.232Z,-16.04
2023-01-10T06:19:14.786Z,-15.89
2023-01-10T06:24:17.191Z,-15.93
2023-01-10T06:29:20.240Z,-15.86
2023-01-10T06:34:22.495Z,-16.74
2023-01-10T06:39:24.711Z,-15.97
2023-01-10T06:44:27.411Z,-15.89
2023-01-10T06:49:32.639Z,-16.04
2023-01-10T06:54:34.947Z,-15.77
2023-01-10T06:59:37.260Z,-16.19
2023-01-10T07:04:39.614Z,-16.19
2023-01-10T07:09:41.900Z,-16.24
2023-01-10T07:14:44.432Z,-16.23
2023-01-10T07:19:46.722Z,-15.81
2023-01-10T07:24:49.024Z,-15.15
2023-01-10T07:29:51.296Z,-15.36
2023-01-10T07:34:53.598Z,-15.18
2023-01-10T07:39:56.675Z,-15.15
2023-01-10T07:44:58.873Z,-15.23
2023-01-10T07:50:01.176Z,-15.04
2023-01-10T07:55:06.083Z,-15.21
2023-01-10T08:00:09.004Z,-15.17
2023-01-10T08:05:11.634Z,-15.18
2023-01-10T08:10:13.876Z,-14.56
2023-01-10T08:15:16.083Z,-14.84
2023-01-10T08:20:18.419Z,-14.63
2023-01-10T08:25:20.794Z,-14.33
2023-01-10T08:30:23.865Z,-14.40
2023-01-10T08:35:26.153Z,-14.92
2023-01-10T08:40:28.485Z,-14.70
2023-01-10T08:45:31.189Z,-14.62
2023-01-10T08:50:33.459Z,-13.98
2023-01-10T08:55:35.781Z,-14.35
2023-01-10T09:00:38.014Z,-14.52
2023-01-10T09:05:41.409Z,-14.07
2023-01-10T09:10:43.704Z,-13.95
2023-01-10T09:15:46.110Z,-13.79
2023-01-10T09:20:48.375Z,-13.53
2023-01-10T09:25:52.961Z,-13.45
2023-01-10T09:30:55.329Z,-13.90
2023-01-10T09:35:59.042Z,-13.46
2023-01-10T09:41:06.525Z,-13.47
2023-01-10T09:46:31.069Z,-13.45
2023-01-10T09:51:42.517Z,-13.01
2023-01-10T09:56:45.525Z,-14.26
2023-01-10T10:01:49.443Z,-12.95
2023-01-10T10:06:52.420Z,-13.24
2023-01-10T10:12:14.857Z,-12.81
2023-01-10T10:17:41.802Z,-12.77
2023-01-10T10:22:53.595Z,-12.82
2023-01-10T10:28:33.433Z,-12.65
2023-01-10T10:34:05.103Z,-12.61
2023-01-10T10:39:12.803Z,-12.67
2023-01-10T10:44:32.875Z,-12.49
2023-01-10T10:49:43.688Z,-12.66
2023-01-10T10:54:47.777Z,-12.62
2023-01-10T10:59:50.198Z,-13.82
2023-01-10T11:04:54.762Z,-12.70
2023-01-10T11:10:07.364Z,-12.88
2023-01-10T11:15:28.421Z,-12.85
2023-01-10T11:20:31.384Z,-12.88
2023-01-10T11:25:33.952Z,-12.60
2023-01-10T11:30:37.060Z,-12.65
2023-01-10T11:35:41.686Z,-12.67
2023-01-10T11:40:58.656Z,-12.54
2023-01-10T11:46:22.102Z,-12.21
2023-01-10T11:51:30.189Z,-12.06
2023-01-10T11:56:35.705Z,-12.72
2023-01-10T12:01:40.772Z,-12.40
2023-01-10T12:06:48.974Z,-12.00
2023-01-10T12:12:05.315Z,-11.96
2023-01-10T12:17:10.824Z,-12.39
2023-01-10T12:22:15.371Z,-12.17
2023-01-10T12:27:18.803Z,-12.13
2023-01-10T12:32:25.348Z,-13.07
2023-01-10T12:37:35.116Z,-12.39
2023-01-10T12:43:08.519Z,-11.94
2023-01-10T12:48:19.633Z,-12.18
2023-01-10T12:53:24.823Z,-11.90
2023-01-10T12:58:35.143Z,-11.91
2023-01-10T13:03:38.268Z,-12.43
2023-01-10T13:08:43.296Z,-12.48
2023-01-10T13:19:14.754Z,-11.89
2023-01-10T13:24:21.280Z,-11.90
2023-01-10T13:29:44.691Z,-13.26
2023-01-10T13:34:48.475Z,-12.18
2023-01-10T13:40:05.305Z,-12.92
2023-01-10T13:45:11.963Z,-11.88
2023-01-10T13:50:28.720Z,-11.88
2023-01-10T13:55:40.208Z,-11.87
2023-01-10T14:01:04.684Z,-12.02
2023-01-10T14:06:29.483Z,-12.15
2023-01-10T14:11:43.977Z,-11.90
2023-01-10T14:16:52.174Z,-12.34
2023-01-10T14:21:59.910Z,-12.59
2023-01-10T14:27:02.530Z,-12.26
2023-01-10T14:32:06.905Z,-11.88
2023-01-10T14:37:32.759Z,-12.15
2023-01-10T14:42:37.797Z,-12.08
2023-01-10T14:47:40.145Z,-12.18
2023-01-10T14:52:42.686Z,-11.86
2023-01-10T14:57:59.299Z,-11.89
2023-01-10T15:03:04.276Z,-12.19
2023-01-10T15:08:26.251Z,-11.84
2023-01-10T15:13:29.297Z,-12.25
2023-01-10T15:18:40.836Z,-12.25
2023-01-10T15:23:44.771Z,-11.97
2023-01-10T15:29:02.918Z,-12.08
2023-01-10T15:34:16.189Z,-13.55
2023-01-10T15:39:29.255Z,-11.88
2023-01-10T15:44:39.422Z,-12.12
2023-01-10T15:49:53.452Z,-12.56
2023-01-10T15:54:57.293Z,-12.16
2023-01-10T16:00:00.363Z,-12.15
2023-01-10T16:05:13.968Z,-12.19
2023-01-10T16:10:36.226Z,-12.11
2023-01-10T16:15:42.524Z,-11.84
2023-01-10T16:20:48.962Z,-12.21
2023-01-10T16:25:57.092Z,-12.19
2023-01-10T16:30:59.521Z,-12.40
2023-01-10T16:36:01.824Z,-12.40
2023-01-10T16:41:27.158Z,-12.71
2023-01-10T16:46:29.667Z,-12.69
2023-01-10T16:51:34.086Z,-12.25
2023-01-10T16:56:39.269Z,-12.05
2023-01-10T17:01:46.709Z,-12.21
2023-01-10T17:06:49.208Z,-12.72
2023-01-10T17:12:04.744Z,-12.31
2023-01-10T17:17:11.115Z,-12.56
2023-01-10T17:22:13.657Z,-12.62
2023-01-10T17:27:16.119Z,-12.51
2023-01-10T17:32:18.479Z,-11.98
2023-01-10T17:37:20.852Z,-12.23
2023-01-10T17:42:23.220Z,-11.94
2023-01-10T17:47:25.866Z,-12.16
2023-01-10T17:52:28.334Z,-12.19
2023-01-10T17:57:30.841Z,-12.21
2023-01-10T18:02:34.382Z,-12.21
2023-01-10T18:07:37.594Z,-12.16
2023-01-10T18:12:40.036Z,-12.00
2023-01-10T18:17:43.162Z,-12.67
2023-01-10T18:23:05.052Z,-12.06
2023-01-10T18:28:09.723Z,-12.51
2023-01-10T18:33:12.206Z,-12.59
2023-01-10T18:38:14.601Z,-12.69
2023-01-10T18:43:17.023Z,-12.47
2023-01-10T18:48:20.231Z,-12.22
2023-01-10T18:53:34.091Z,-12.19
2023-01-10T18:58:41.105Z,-12.22
2023-01-10T19:03:43.830Z,-11.99
2023-01-10T19:08:46.982Z,-12.12
2023-01-10T19:13:52.177Z,-12.30
2023-01-10T19:18:56.323Z,-12.00
2023-01-10T19:24:08.157Z,-12.24
2023-01-10T19:29:10.474Z,-12.37
2023-01-10T19:34:12.923Z,-12.36
2023-01-10T19:39:15.590Z,-12.69
2023-01-10T19:44:19.095Z,-12.01
2023-01-10T19:49:21.385Z,-12.42
2023-01-10T19:54:27.148Z,-12.34
2023-01-10T19:59:32.833Z,-12.24
2023-01-10T20:04:37.422Z,-12.48
2023-01-10T20:09:39.714Z,-12.08
2023-01-10T20:14:47.047Z,-12.64
2023-01-10T20:19:49.717Z,-12.57
2023-01-10T20:24:53.291Z,-12.47
2023-01-10T20:29:56.124Z,-12.26
2023-01-10T20:34:58.525Z,-12.15
2023-01-10T20:40:00.831Z,-12.35
2023-01-10T20:45:03.224Z,-12.42
2023-01-10T20:50:06.234Z,-12.23
2023-01-10T20:55:08.995Z,-12.33
2023-01-10T21:00:12.041Z,-12.42
2023-01-10T21:05:14.366Z,-12.97
2023-01-10T21:10:17.203Z,-12.22
2023-01-10T21:15:19.466Z,-12.10
2023-01-10T21:20:21.820Z,-12.31
2023-01-10T21:25:24.256Z,-12.55
2023-01-10T21:30:26.564Z,-12.40
2023-01-10T21:35:28.858Z,-12.49
2023-01-10T21:40:32.163Z,-12.40
2023-01-10T21:45:34.547Z,-12.33
2023-01-10T21:50:36.924Z,-12.27
2023-01-10T21:55:39.187Z,-12.66
2023-01-10T22:00:41.433Z,-12.29
2023-01-10T22:05:43.853Z,-12.19
2023-01-10T22:10:46.165Z,-12.26
2023-01-10T22:15:49.570Z,-12.49
2023-01-10T22:20:53.610Z,-12.45
2023-01-10T22:26:07.136Z,-12.07
2023-01-10T22:31:09.505Z,-12.30
2023-01-10T22:36:17.117Z,-12.36
2023-01-10T22:41:21.924Z,-12.43
2023-01-10T22:46:24.428Z,-12.31
2023-01-10T22:51:28.735Z,-12.17
2023-01-10T22:56:31.535Z,-12.36
2023-01-10T23:01:33.921Z,-12.49
2023-01-10T23:06:37.264Z,-12.73
2023-01-10T23:11:39.552Z,-12.28
2023-01-10T23:16:41.853Z,-12.49
2023-01-10T23:21:44.229Z,-12.32
2023-01-10T23:26:46.521Z,-12.33
2023-01-10T23:31:51.739Z,-12.61
2023-01-10T23:36:53.953Z,-12.29
2023-01-10T23:41:56.256Z,-12.29
2023-01-10T23:46:58.804Z,-13.08
2023-01-10T23:52:01.077Z,-12.45
2023-01-10T23:57:03.388Z,-12.29
